Local Weather Ingen bokad jour idag Monday 23rd of July
Flygplats METAR TAF
Airport METAR TAF
ESSL - Linköping231050Z 19006KT 140V250 9999 FEW032 24/14 Q1011= RRB 230930Z 2310/2314 24008KT 9999 FEW030=
ESSP - Norrköping231050Z 26008KT 220V340 9999 FEW044 25/13 Q1011= RRA 230830Z 2309/2318 24008KT CAVOK PROB40 2313/2318 13010KT=
ESGJ - Jönköping231050Z 22009KT 9999 SCT018 BKN026 18/15 Q1013= 230830Z 2309/2318 22005KT 9999 BKN012 BECMG 2309/2311 BKN018=
ESKN - Skavsta231050Z 24007KT 190V290 9999 FEW040 24/13 Q1011= 230530Z 2306/2406 24004KT CAVOK BECMG 2311/2313 17010KT BECMG 2323/2401 32006KT=
ESSV - Visby231050Z 26011KT CAVOK 22/15 Q1012= RRA 230830Z 2309/2318 29009KT CAVOK=
ESGG - Göteborg231050Z 22011KT 200V260 9999 BKN021 21/15 Q1013= 230530Z 2306/2406 23009KT 9999 BKN012 BECMG 2306/2309 FEW020 PROB40 2322/2403 0700 BCFG PROB40 2403/2406 0300 FG VV002=
FLEET STATUS
Flygplan Tid till service Tid till flygstopp Flygtid Landningar
Aircraft Time to service Time to stop Total time Landings
SE-FCEN/AN/A4 891.9 h338 st.
SE-IUD25.1 h30.1 h11 224.9 h22 276 st.
SE-KIT20.9 h25.9 h11 529.1 h22 009 st.
SE-KMH3.3 h13.3 h15 696.7 h58 963 st.
SE-MEB0.1 h5.1 h1 249.9 h3 788 st.
SE-SIMN/AN/A1 192.2 h85 st.
NOTAM
ESSL/LINKOPING/SAAB
- AERODROME CONTROL TOWER (TWR) HOURS OF OPS/SERVICE MON-WED 0345-0445 1100-1230 2000-2100, THU 0345-0445 1100-1300 2000-2100, FRI 0345-0445 1100-1230 2000-2100 SAT 0345-0445 1415-1530 2000-2100 SUN 0345-0445 1130-1300 1500-1615 2000-2100 FROM: 16 JUL 2018 00:00 TO: 05 AUG 2018 23:59 ES/B1640/18 - APPROACH CONTROL SERVICE HOURS OF OPS/SERVICE AT OSTGOTA TERMINAL CONTROL CENTRE, MON-FRI 0430-2150 SAT 0430-2130 SUN, HOL 0430-2150 SERVICE PROVIDED ACCORDING TO ES AIP ENR 2.1 FROM: 02 JUL 2018 00:00 TO: 03 AUG 2018 23:59 ES/B1231/18 - FREQ FOR TRANSMITTING POSITION AND INTENTIONS WHEN ATS IS CLOSED SHOULD READ 118.805. REF AIP AD 2 ESSL 2.20 PARA 6. FROM: 25 JUN 2018 12:00 TO: PERM ES/B2150/18 - ATTENTION UNMANNED AIRCRAFT. ADDITION TO REGULATION TSFS 2017 110. THE LIMITATIONS IN REGULATION TSFS 2017 110 CHAPTER 3 PARAGRPH 3 APPLIES EVEN THOUGH THE AIRPORT IS CLOSED AND SAAB AND MALMEN CTR ARE NOT ESTABLISHED. FROM: 31 MAY 2018 09:55 TO: 31 JUL 2018 09:30 EST ES/B1743/18
ESCF/LINKOPING/MALMEN
CONTINUES ON NEXT PAGE ISSUED: 23 JUL 2018 10:56 UTC PAGE: 10(13) - LINKOPING/MALMEN LOCATOR LCF FREQ 285 KHZ OUT OF SERVICE FROM: 18 JUL 2018 11:17 TO: 23 JUL 2018 14:00 EST ES/B2516/18 - AERODROME CONTROL TOWER (TWR) CLOSED FROM: 02 JUL 2018 05:30 TO: 03 AUG 2018 13:00 ES/B1995/18 - ATTENTION UNMANNED AIRCRAFT. ADDITION TO REGULATION TSFS 2017 110. THE LIMITATIONS IN REGULATION TSFS 2017 110 CHAPTER 3 PARAGRPH 3 APPLIES EVEN THOUGH THE AIRPORT IS CLOSED AND SAAB AND MALMEN CTR ARE NOT ESTABLISHED. FROM: 31 MAY 2018 09:53 TO: 31 JUL 2018 09:30 EST ES/B1740/18
PPR
Ankomst Avgång Flygplan Namn Bränsle
Arrival Departure Aircraft Name Fuel